Time;durP1;ratioP1;P1;durP2;ratioP2;P2;SDS_P1;SDS_P2;PMS_P1;PMS_P2;Temp;Humidity;BMP_temperature;BMP_pressure;BME280_temperature;BME280_humidity;BME280_pressure;Samples;Min_cycle;Max_cycle;Signal;HPM_P1;HPM_P2
2022/02/13 00:01:46;;;;;;;;;;;;;;;;;;5042510;28;19956;-71
2022/02/13 00:04:14;;;;;;;;;;;;;;;;;;5038440;28;19960;-71
2022/02/13 00:06:40;;;;;;;;;;;;;;;;;;5044337;28;19956;-70
2022/02/13 00:09:06;;;;;;;;;;;;;;;;;;5043071;28;20396;-71
2022/02/13 00:11:32;;;;;;;;;;;;;;;;;;5045268;28;20005;-71
2022/02/13 00:13:59;;;;;;;;;;;;;;;;;;5046094;28;19956;-71
2022/02/13 00:16:25;;;;;;;;;;;;;;;;;;5042361;28;19979;-71
2022/02/13 00:18:51;;;;;;;;;;;;;;;;;;5049589;28;19956;-71
2022/02/13 00:21:17;;;;;;;;;;;;;;;;;;5013328;28;22595;-71
2022/02/13 00:23:43;;;;;;;;;;;;;;;;;;5040576;28;19965;-71
2022/02/13 00:26:10;;;;;;;;;;;;;;;;;;5045380;28;19959;-71
2022/02/13 00:28:36;;;;;;;;;;;;;;;;;;5045954;28;20392;-71
2022/02/13 00:31:02;;;;;;;;;;;;;;;;;;5044109;28;19979;-71
2022/02/13 00:33:28;;;;;;;;;;;;;;;;;;5041032;28;19965;-71
2022/02/13 00:35:54;;;;;;;;;;;;;;;;;;5044482;28;19979;-72
2022/02/13 00:38:20;;;;;;;;;;;;;;;;;;5042251;28;19955;-71
2022/02/13 00:40:47;;;;;;;;;;;;;;;;;;5038977;28;20384;-70
2022/02/13 00:43:13;;;;;;;;;;;;;;;;;;5044825;28;19956;-71
2022/02/13 00:45:39;;;;;;;;;;;;;;;;;;5045829;28;20010;-70
2022/02/13 00:48:07;;;;;;;;;;;;;;;;;;5040477;28;19956;-71
2022/02/13 00:50:34;;;;;;;;;;;;;;;;;;5037236;28;19948;-71
2022/02/13 00:53:00;;;;;;;;;;;;;;;;;;5035066;28;20385;-71
2022/02/13 00:55:26;;;;;;;;;;;;;;;;;;5028255;28;19960;-70
2022/02/13 00:57:52;;;;;;;;;;;;;;;;;;5043624;28;20380;-72
2022/02/13 01:00:18;;;;;;;;;;;;;;;;;;5039193;28;19992;-70
2022/02/13 01:02:45;;;;;;;;;;;;;;;;;;5041368;28;19932;-70
2022/02/13 01:05:11;;;;;;;;;;;;;;;;;;5042515;28;19974;-71
2022/02/13 01:07:37;;;;;;;;;;;;;;;;;;5043573;28;19963;-70
2022/02/13 01:10:03;;;;;;;;;;;;;;;;;;5039018;28;19948;-71
2022/02/13 01:12:29;;;;;;;;;;;;;;;;;;5041539;28;19952;-70
2022/02/13 01:14:55;;;;;;;;;;;;;;;;;;5021585;28;19960;-70
2022/02/13 01:17:22;;;;;;;;;;;;;;;;;;5047198;28;19974;-71
2022/02/13 01:19:48;;;;;;;;;;;;;;;;;;5042757;28;19956;-71
2022/02/13 01:22:14;;;;;;;;;;;;;;;;;;5041499;28;20349;-71
2022/02/13 01:24:40;;;;;;;;;;;;;;;;;;5043100;28;19975;-71
2022/02/13 01:27:07;;;;;;;;;;;;;;;;;;5047727;28;19960;-71
2022/02/13 01:29:34;;;;;;;;;;;;;;;;;;5055192;28;20380;-71
2022/02/13 01:32:00;;;;;;;;;;;;;;;;;;5048848;28;19974;-71
2022/02/13 01:34:27;;;;;;;;;;;;;;;;;;5044636;28;19968;-71
2022/02/13 01:36:54;;;;;;;;;;;;;;;;;;5043608;28;19944;-71
2022/02/13 01:39:20;;;;;;;;;;;;;;;;;;5043645;28;19974;-71
2022/02/13 01:41:49;;;;;;;;;;;;;;;;;;5044975;28;19967;-71
2022/02/13 01:44:15;;;;;;;;;;;;;;;;;;5038053;28;19956;-71
2022/02/13 01:46:41;;;;;;;;;;;;;;;;;;5048913;28;19948;-71
2022/02/13 01:49:07;;;;;;;;;;;;;;;;;;5048956;28;19964;-72
2022/02/13 01:51:33;;;;;;;;;;;;;;;;;;5049129;28;19981;-73
2022/02/13 01:54:00;;;;;;;;;;;;;;;;;;5042121;28;19955;-71
2022/02/13 01:56:26;;;;;;;;;;;;;;;;;;5055535;28;19964;-71
2022/02/13 01:58:52;;;;;;;;;;;;;;;;;;5047252;28;19928;-71
2022/02/13 02:01:18;;;;;;;;;;;;;;;;;;5045161;28;20390;-72
2022/02/13 02:03:45;;;;;;;;;;;;;;;;;;5029241;28;19952;-72
2022/02/13 02:06:11;;;;;;;;;;;;;;;;;;5049862;28;20018;-72
2022/02/13 02:08:38;;;;;;;;;;;;;;;;;;5046609;28;19952;-71
2022/02/13 02:11:04;;;;;;;;;;;;;;;;;;5047071;28;19948;-71
2022/02/13 02:13:30;;;;;;;;;;;;;;;;;;5045330;28;19952;-71
2022/02/13 02:15:56;;;;;;;;;;;;;;;;;;5050455;28;19952;-72
2022/02/13 02:18:22;;;;;;;;;;;;;;;;;;5045510;28;19952;-71
2022/02/13 02:20:49;;;;;;;;;;;;;;;;;;5045575;28;19964;-71
2022/02/13 02:23:15;;;;;;;;;;;;;;;;;;5020948;28;19956;-71
2022/02/13 02:25:42;;;;;;;;;;;;;;;;;;5048823;28;19948;-71
2022/02/13 02:28:08;;;;;;;;;;;;;;;;;;5041932;28;19960;-71
2022/02/13 02:30:34;;;;;;;;;;;;;;;;;;5045225;28;20268;-71
2022/02/13 02:33:01;;;;;;;;;;;;;;;;;;5044861;28;19963;-71
2022/02/13 02:35:27;;;;;;;;;;;;;;;;;;5044073;28;20434;-71
2022/02/13 02:37:53;;;;;;;;;;;;;;;;;;5043705;28;19976;-72
2022/02/13 02:40:19;;;;;;;;;;;;;;;;;;5047983;28;20348;-71
2022/02/13 02:42:47;;;;;;;;;;;;;;;;;;5042849;28;20018;-71
2022/02/13 02:45:14;;;;;;;;;;;;;;;;;;5038392;28;19956;-70
2022/02/13 02:47:41;;;;;;;;;;;;;;;;;;5045987;28;19948;-71
2022/02/13 02:50:07;;;;;;;;;;;;;;;;;;5044305;28;20329;-71
2022/02/13 02:52:33;;;;;;;;;;;;;;;;;;5025422;28;20383;-70
2022/02/13 02:54:59;;;;;;;;;;;;;;;;;;5043063;28;19956;-71
2022/02/13 02:57:26;;;;;;;;;;;;;;;;;;5046472;28;19952;-71
2022/02/13 02:59:53;;;;;;;;;;;;;;;;;;5046261;28;19932;-73
2022/02/13 03:02:19;;;;;;;;;;;;;;;;;;5042438;28;19964;-71
2022/02/13 03:04:45;;;;;;;;;;;;;;;;;;5046470;28;19960;-70
2022/02/13 03:07:11;;;;;;;;;;;;;;;;;;5047506;28;19921;-70
2022/02/13 03:09:37;;;;;;;;;;;;;;;;;;5045695;28;20381;-71
2022/02/13 03:12:03;;;;;;;;;;;;;;;;;;5039259;28;19964;-70
2022/02/13 03:14:30;;;;;;;;;;;;;;;;;;5038865;28;19967;-70
2022/02/13 03:16:56;;;;;;;;;;;;;;;;;;5046444;28;19956;-70
2022/02/13 03:19:22;;;;;;;;;;;;;;;;;;5045043;28;19964;-69
2022/02/13 03:21:48;;;;;;;;;;;;;;;;;;5021463;28;20533;-70
2022/02/13 03:24:14;;;;;;;;;;;;;;;;;;5047342;28;19952;-70
2022/02/13 03:26:41;;;;;;;;;;;;;;;;;;5047550;28;19924;-70
2022/02/13 03:29:07;;;;;;;;;;;;;;;;;;5027389;28;19966;-70
2022/02/13 03:31:33;;;;;;;;;;;;;;;;;;5041431;28;20396;-70
2022/02/13 03:33:59;;;;;;;;;;;;;;;;;;5042537;28;19956;-70
2022/02/13 03:36:26;;;;;;;;;;;;;;;;;;5044512;28;20369;-70
2022/02/13 03:38:52;;;;;;;;;;;;;;;;;;5049325;28;19959;-70
2022/02/13 03:41:19;;;;;;;;;;;;;;;;;;5044953;28;21878;-70
2022/02/13 03:43:45;;;;;;;;;;;;;;;;;;5043690;28;19952;-70
2022/02/13 03:46:11;;;;;;;;;;;;;;;;;;5044902;28;20397;-70
2022/02/13 03:48:37;;;;;;;;;;;;;;;;;;5044166;28;19952;-70
2022/02/13 03:51:03;;;;;;;;;;;;;;;;;;5029995;28;19944;-70
2022/02/13 03:53:29;;;;;;;;;;;;;;;;;;5043944;28;20380;-70
2022/02/13 03:55:56;;;;;;;;;;;;;;;;;;5043260;28;20043;-70
2022/02/13 03:58:22;;;;;;;;;;;;;;;;;;5046609;28;20348;-70
2022/02/13 04:00:48;;;;;;;;;;;;;;;;;;5026505;28;19948;-70
2022/02/13 04:03:15;;;;;;;;;;;;;;;;;;5045213;28;19955;-69
2022/02/13 04:05:41;;;;;;;;;;;;;;;;;;5044956;28;19957;-70
2022/02/13 04:08:07;;;;;;;;;;;;;;;;;;5047428;28;20331;-70
2022/02/13 04:10:33;;;;;;;;;;;;;;;;;;5043802;28;19952;-70
2022/02/13 04:12:59;;;;;;;;;;;;;;;;;;5040038;28;19960;-70
2022/02/13 04:15:27;;;;;;;;;;;;;;;;;;5041748;28;20300;-70
2022/02/13 04:17:53;;;;;;;;;;;;;;;;;;5051832;28;20430;-69
2022/02/13 04:20:24;;;;;;;;;;;;;;;;;;5045343;28;19916;-70
2022/02/13 04:22:53;;;;;;;;;;;;;;;;;;5045906;28;20764;-70
2022/02/13 04:25:26;;;;;;;;;;;;;;;;;;5041811;28;20016;-70
2022/02/13 04:27:52;;;;;;;;;;;;;;;;;;5046146;28;19952;-70
2022/02/13 04:30:19;;;;;;;;;;;;;;;;;;5039353;28;20010;-70
2022/02/13 04:32:45;;;;;;;;;;;;;;;;;;5039616;28;20478;-70
2022/02/13 04:35:12;;;;;;;;;;;;;;;;;;5035465;28;19979;-70
2022/02/13 04:37:38;;;;;;;;;;;;;;;;;;5044878;28;19948;-70
2022/02/13 04:40:04;;;;;;;;;;;;;;;;;;5039747;28;20000;-71
2022/02/13 04:42:30;;;;;;;;;;;;;;;;;;5048870;28;19963;-70
2022/02/13 04:44:57;;;;;;;;;;;;;;;;;;5042082;28;20029;-71
2022/02/13 04:47:23;;;;;;;;;;;;;;;;;;5045695;28;19952;-70
2022/02/13 04:49:50;;;;;;;;;;;;;;;;;;5044333;28;19921;-70
2022/02/13 04:52:17;;;;;;;;;;;;;;;;;;5044333;28;19966;-70
2022/02/13 04:54:43;;;;;;;;;;;;;;;;;;5044238;28;19964;-70
2022/02/13 04:57:09;;;;;;;;;;;;;;;;;;5041197;28;19947;-70
2022/02/13 04:59:37;;;;;;;;;;;;;;;;;;5043224;28;19917;-70
2022/02/13 05:02:03;;;;;;;;;;;;;;;;;;5042994;28;19960;-70
2022/02/13 05:04:30;;;;;;;;;;;;;;;;;;5046663;28;19944;-70
2022/02/13 05:06:56;;;;;;;;;;;;;;;;;;5037541;28;19959;-70
2022/02/13 05:09:22;;;;;;;;;;;;;;;;;;5038872;28;19972;-70
2022/02/13 05:11:48;;;;;;;;;;;;;;;;;;5040117;28;19936;-72
2022/02/13 05:14:14;;;;;;;;;;;;;;;;;;5035968;28;20395;-70
2022/02/13 05:16:41;;;;;;;;;;;;;;;;;;5042812;28;19960;-70
2022/02/13 05:19:07;;;;;;;;;;;;;;;;;;5039648;28;19959;-70
2022/02/13 05:21:33;;;;;;;;;;;;;;;;;;5044362;28;19960;-70
2022/02/13 05:24:00;;;;;;;;;;;;;;;;;;5044418;28;19941;-71
2022/02/13 05:26:26;;;;;;;;;;;;;;;;;;5044348;28;19971;-70
2022/02/13 05:28:52;;;;;;;;;;;;;;;;;;5045122;28;20292;-70
2022/02/13 05:31:18;;;;;;;;;;;;;;;;;;5043161;28;19960;-70
2022/02/13 05:33:45;;;;;;;;;;;;;;;;;;5042203;28;19925;-70
2022/02/13 05:36:11;;;;;;;;;;;;;;;;;;5042828;28;19959;-70
2022/02/13 05:38:37;;;;;;;;;;;;;;;;;;5043550;28;20423;-70
2022/02/13 05:41:03;;;;;;;;;;;;;;;;;;5043650;28;19968;-70
2022/02/13 05:43:29;;;;;;;;;;;;;;;;;;5041294;28;19960;-70
2022/02/13 05:45:55;;;;;;;;;;;;;;;;;;5042443;28;19956;-71
2022/02/13 05:48:24;;;;;;;;;;;;;;;;;;5038549;28;19964;-70
2022/02/13 05:50:51;;;;;;;;;;;;;;;;;;5047707;28;19920;-70
2022/02/13 05:53:17;;;;;;;;;;;;;;;;;;5038559;28;20019;-70
2022/02/13 05:55:43;;;;;;;;;;;;;;;;;;5045347;28;19976;-70
2022/02/13 05:58:09;;;;;;;;;;;;;;;;;;5042931;28;19959;-71
2022/02/13 06:00:35;;;;;;;;;;;;;;;;;;5041314;28;20041;-71
2022/02/13 06:03:03;;;;;;;;;;;;;;;;;;5042141;28;19968;-71
2022/02/13 06:05:29;;;;;;;;;;;;;;;;;;5040903;28;19956;-71
2022/02/13 06:07:55;;;;;;;;;;;;;;;;;;5046711;28;19956;-72
2022/02/13 06:10:22;;;;;;;;;;;;;;;;;;5040134;28;19965;-71
2022/02/13 06:12:48;;;;;;;;;;;;;;;;;;5049954;28;20086;-70
2022/02/13 06:15:14;;;;;;;;;;;;;;;;;;5046119;28;19964;-71
2022/02/13 06:17:40;;;;;;;;;;;;;;;;;;5048690;28;19960;-71
2022/02/13 06:20:06;;;;;;;;;;;;;;;;;;5042078;28;19960;-71
2022/02/13 06:22:32;;;;;;;;;;;;;;;;;;5047169;28;20003;-70
2022/02/13 06:24:59;;;;;;;;;;;;;;;;;;5043705;28;19963;-71
2022/02/13 06:27:25;;;;;;;;;;;;;;;;;;5023030;28;19956;-71
2022/02/13 06:29:51;;;;;;;;;;;;;;;;;;5043443;28;19952;-70
2022/02/13 06:32:17;;;;;;;;;;;;;;;;;;5042967;28;20400;-70
2022/02/13 06:34:43;;;;;;;;;;;;;;;;;;5049883;28;19952;-70
2022/02/13 06:37:10;;;;;;;;;;;;;;;;;;5042872;28;20625;-71
2022/02/13 06:39:36;;;;;;;;;;;;;;;;;;5044524;28;19948;-73
2022/02/13 06:42:02;;;;;;;;;;;;;;;;;;5045014;28;20206;-70
2022/02/13 06:44:28;;;;;;;;;;;;;;;;;;5038609;28;20412;-71
2022/02/13 06:46:54;;;;;;;;;;;;;;;;;;5037577;28;19971;-72
2022/02/13 06:49:20;;;;;;;;;;;;;;;;;;5040078;28;20038;-71
2022/02/13 06:51:47;;;;;;;;;;;;;;;;;;5047777;28;19960;-71
2022/02/13 06:54:13;;;;;;;;;;;;;;;;;;5035144;28;19963;-70
2022/02/13 06:56:39;;;;;;;;;;;;;;;;;;5040305;28;20354;-69
2022/02/13 06:59:05;;;;;;;;;;;;;;;;;;5043400;28;19967;-70
2022/02/13 07:01:31;;;;;;;;;;;;;;;;;;5041819;28;19967;-70
2022/02/13 07:03:57;;;;;;;;;;;;;;;;;;5042699;28;19948;-71
2022/02/13 07:06:24;;;;;;;;;;;;;;;;;;5026836;28;19945;-71
2022/02/13 07:08:50;;;;;;;;;;;;;;;;;;5041820;28;19956;-71
2022/02/13 07:11:16;;;;;;;;;;;;;;;;;;5043487;28;20649;-71
2022/02/13 07:13:43;;;;;;;;;;;;;;;;;;5042448;28;19956;-69
2022/02/13 07:16:09;;;;;;;;;;;;;;;;;;5040494;28;19960;-71
2022/02/13 07:18:36;;;;;;;;;;;;;;;;;;5037895;28;19956;-71
2022/02/13 07:21:02;;;;;;;;;;;;;;;;;;5034963;28;20888;-71
2022/02/13 07:23:28;;;;;;;;;;;;;;;;;;5036897;28;19956;-71
2022/02/13 07:25:55;;;;;;;;;;;;;;;;;;5032995;28;20009;-72
2022/02/13 07:31:06;;;;;;;;;;;;;;;;;;5034114;28;19968;-70
2022/02/13 07:33:34;;;;;;;;;;;;;;;;;;5033797;28;19964;-70
2022/02/13 07:36:00;;;;;;;;;;;;;;;;;;5037197;28;19968;-71
2022/02/13 07:38:26;;;;;;;;;;;;;;;;;;5040400;28;19960;-70
2022/02/13 07:40:53;;;;;;;;;;;;;;;;;;5039486;28;20391;-70
2022/02/13 07:43:19;;;;;;;;;;;;;;;;;;5023754;28;20023;-71
2022/02/13 07:45:45;;;;;;;;;;;;;;;;;;5041873;28;19967;-71
2022/02/13 07:48:11;;;;;;;;;;;;;;;;;;5041328;28;19957;-71
2022/02/13 07:50:38;;;;;;;;;;;;;;;;;;5037207;28;19956;-72
2022/02/13 07:53:04;;;;;;;;;;;;;;;;;;5037316;28;19948;-74
2022/02/13 07:55:32;;;;;;;;;;;;;;;;;;5033474;28;20072;-72
2022/02/13 07:57:58;;;;;;;;;;;;;;;;;;5039257;28;20455;-72
2022/02/13 08:00:24;;;;;;;;;;;;;;;;;;5036031;28;19968;-72
2022/02/13 08:02:51;;;;;;;;;;;;;;;;;;5024452;28;19929;-72
2022/02/13 08:05:18;;;;;;;;;;;;;;;;;;5042417;28;19964;-72
2022/02/13 08:07:45;;;;;;;;;;;;;;;;;;5045585;28;19940;-72
2022/02/13 08:10:11;;;;;;;;;;;;;;;;;;5024960;28;19981;-73
2022/02/13 08:12:37;;;;;;;;;;;;;;;;;;5040048;28;20318;-71
2022/02/13 08:15:03;;;;;;;;;;;;;;;;;;5026335;28;19960;-71
2022/02/13 08:17:30;;;;;;;;;;;;;;;;;;5035914;28;20039;-71
2022/02/13 08:19:56;;;;;;;;;;;;;;;;;;5037108;28;19967;-71
2022/02/13 08:22:22;;;;;;;;;;;;;;;;;;5042433;28;19929;-72
2022/02/13 08:24:48;;;;;;;;;;;;;;;;;;5044566;28;20490;-72
2022/02/13 08:27:14;;;;;;;;;;;;;;;;;;5039043;28;20097;-71
2022/02/13 08:29:42;;;;;;;;;;;;;;;;;;5020403;28;19951;-71
2022/02/13 08:32:08;;;;;;;;;;;;;;;;;;5038910;28;19970;-72
2022/02/13 08:34:34;;;;;;;;;;;;;;;;;;5023302;28;19953;-71
2022/02/13 08:37:01;;;;;;;;;;;;;;;;;;5045831;28;19952;-72
2022/02/13 08:39:27;;;;;;;;;;;;;;;;;;5045910;28;19963;-72
2022/02/13 08:41:53;;;;;;;;;;;;;;;;;;5040536;28;20406;-71
2022/02/13 08:44:20;;;;;;;;;;;;;;;;;;5039710;28;19972;-72
2022/02/13 08:46:47;;;;;;;;;;;;;;;;;;5036443;28;19983;-72
2022/02/13 08:49:13;;;;;;;;;;;;;;;;;;5036356;28;19967;-72
2022/02/13 08:51:39;;;;;;;;;;;;;;;;;;5036085;28;19925;-73
2022/02/13 08:54:05;;;;;;;;;;;;;;;;;;5034616;28;20373;-72
2022/02/13 08:56:32;;;;;;;;;;;;;;;;;;5033766;28;19948;-73
2022/02/13 08:58:59;;;;;;;;;;;;;;;;;;5035235;28;19921;-73
2022/02/13 09:01:25;;;;;;;;;;;;;;;;;;5037497;28;20377;-72
2022/02/13 09:03:52;;;;;;;;;;;;;;;;;;5037354;28;19916;-73
2022/02/13 09:06:18;;;;;;;;;;;;;;;;;;5043179;28;19951;-73
2022/02/13 09:08:45;;;;;;;;;;;;;;;;;;5037540;28;19968;-72
2022/02/13 09:11:11;;;;;;;;;;;;;;;;;;5034790;28;19999;-73
2022/02/13 09:13:37;;;;;;;;;;;;;;;;;;5041327;28;19964;-72
2022/02/13 09:16:03;;;;;;;;;;;;;;;;;;5038033;28;19956;-72
2022/02/13 09:18:29;;;;;;;;;;;;;;;;;;5039697;28;20553;-72
2022/02/13 09:20:56;;;;;;;;;;;;;;;;;;5040379;28;20548;-73
2022/02/13 09:23:22;;;;;;;;;;;;;;;;;;5043265;28;19968;-71
2022/02/13 09:25:48;;;;;;;;;;;;;;;;;;5040578;28;19991;-72
2022/02/13 09:28:14;;;;;;;;;;;;;;;;;;5035916;28;20398;-72
2022/02/13 09:30:40;;;;;;;;;;;;;;;;;;5040097;28;19951;-72
2022/02/13 09:33:07;;;;;;;;;;;;;;;;;;5043330;28;20408;-72
2022/02/13 09:35:33;;;;;;;;;;;;;;;;;;5034801;28;19959;-72
2022/02/13 09:37:59;;;;;;;;;;;;;;;;;;5021857;28;19952;-72
2022/02/13 09:40:25;;;;;;;;;;;;;;;;;;5037071;28;19986;-72
2022/02/13 09:42:52;;;;;;;;;;;;;;;;;;5040021;28;20360;-72
2022/02/13 09:45:19;;;;;;;;;;;;;;;;;;5035289;28;19960;-72
2022/02/13 09:47:45;;;;;;;;;;;;;;;;;;5022346;28;19975;-72
2022/02/13 09:50:11;;;;;;;;;;;;;;;;;;5043234;28;19975;-73
2022/02/13 09:52:37;;;;;;;;;;;;;;;;;;5040196;28;19952;-72
2022/02/13 09:55:04;;;;;;;;;;;;;;;;;;5040935;28;20023;-73
2022/02/13 10:00:15;;;;;;;;;;;;;;;;;;5038306;28;20016;-72
2022/02/13 10:02:41;;;;;;;;;;;;;;;;;;5039167;28;19976;-72
2022/02/13 10:05:07;;;;;;;;;;;;;;;;;;5024640;28;20369;-73
2022/02/13 10:07:34;;;;;;;;;;;;;;;;;;5040482;28;19979;-73
2022/02/13 10:10:00;;;;;;;;;;;;;;;;;;5041047;28;19948;-72
2022/02/13 10:12:28;;;;;;;;;;;;;;;;;;5023400;28;19917;-72
2022/02/13 10:14:55;;;;;;;;;;;;;;;;;;5044108;28;19974;-72
2022/02/13 10:17:21;;;;;;;;;;;;;;;;;;5023635;28;21118;-72
2022/02/13 10:19:47;;;;;;;;;;;;;;;;;;5043193;28;19917;-73
2022/02/13 10:22:13;;;;;;;;;;;;;;;;;;5042342;28;20009;-72
2022/02/13 10:24:40;;;;;;;;;;;;;;;;;;5025013;28;19964;-72
2022/02/13 10:27:06;;;;;;;;;;;;;;;;;;5042378;28;19953;-72
2022/02/13 10:29:33;;;;;;;;;;;;;;;;;;5045709;28;19976;-72
2022/02/13 10:31:59;;;;;;;;;;;;;;;;;;5044119;28;19975;-72
2022/02/13 10:34:26;;;;;;;;;;;;;;;;;;5027102;28;19953;-72
2022/02/13 10:36:52;;;;;;;;;;;;;;;;;;5045138;28;19971;-73
2022/02/13 10:39:18;;;;;;;;;;;;;;;;;;5037116;28;19921;-72
2022/02/13 10:41:44;;;;;;;;;;;;;;;;;;5041459;28;19968;-73
2022/02/13 10:44:11;;;;;;;;;;;;;;;;;;5021928;28;20392;-72
2022/02/13 10:46:37;;;;;;;;;;;;;;;;;;5039676;28;19964;-72
2022/02/13 10:49:03;;;;;;;;;;;;;;;;;;5039763;28;20403;-72
2022/02/13 10:51:29;;;;;;;;;;;;;;;;;;5042357;28;19955;-72
2022/02/13 10:53:55;;;;;;;;;;;;;;;;;;5040739;28;19960;-73
2022/02/13 10:56:22;;;;;;;;;;;;;;;;;;5040873;28;19948;-72
2022/02/13 10:58:48;;;;;;;;;;;;;;;;;;5040439;28;19952;-73
2022/02/13 11:01:15;;;;;;;;;;;;;;;;;;5041646;28;19956;-72
2022/02/13 11:03:42;;;;;;;;;;;;;;;;;;5044928;28;19952;-72
2022/02/13 11:06:08;;;;;;;;;;;;;;;;;;5023519;28;19957;-72
2022/02/13 11:08:34;;;;;;;;;;;;;;;;;;5038860;28;19925;-72
2022/02/13 11:11:00;;;;;;;;;;;;;;;;;;5035874;28;19963;-72
2022/02/13 11:13:26;;;;;;;;;;;;;;;;;;5039214;28;19952;-72
2022/02/13 11:15:53;;;;;;;;;;;;;;;;;;5045021;28;19921;-72
2022/02/13 11:18:19;;;;;;;;;;;;;;;;;;5041917;28;19975;-73
2022/02/13 11:20:45;;;;;;;;;;;;;;;;;;5044846;28;19968;-72
2022/02/13 11:23:11;;;;;;;;;;;;;;;;;;5041712;28;19983;-72
2022/02/13 11:25:37;;;;;;;;;;;;;;;;;;5043847;28;19956;-72
2022/02/13 11:28:04;;;;;;;;;;;;;;;;;;5039471;28;20101;-72
2022/02/13 11:30:30;;;;;;;;;;;;;;;;;;5041282;28;19960;-71
2022/02/13 11:32:56;;;;;;;;;;;;;;;;;;5036527;28;19963;-72
2022/02/13 11:35:22;;;;;;;;;;;;;;;;;;5039567;28;19944;-72
2022/02/13 11:37:48;;;;;;;;;;;;;;;;;;5037117;28;19956;-72
2022/02/13 11:40:14;;;;;;;;;;;;;;;;;;5037731;28;19956;-72
2022/02/13 11:42:41;;;;;;;;;;;;;;;;;;5043201;28;19925;-72
2022/02/13 11:45:07;;;;;;;;;;;;;;;;;;5036905;28;19960;-73
2022/02/13 11:47:40;;;;;;;;;;;;;;;;;;5025167;28;19967;-72
2022/02/13 11:50:11;;;;;;;;;;;;;;;;;;5040131;28;19968;-73
2022/02/13 11:52:38;;;;;;;;;;;;;;;;;;5041688;28;19948;-72
2022/02/13 11:55:04;;;;;;;;;;;;;;;;;;5040215;28;19960;-72
2022/02/13 11:57:33;;;;;;;;;;;;;;;;;;5041512;28;20458;-74
2022/02/13 11:59:59;;;;;;;;;;;;;;;;;;5048142;28;19917;-75
2022/02/13 12:02:25;;;;;;;;;;;;;;;;;;5040091;28;19976;-72
2022/02/13 12:04:51;;;;;;;;;;;;;;;;;;5039337;28;20030;-72
2022/02/13 12:07:17;;;;;;;;;;;;;;;;;;5037874;28;19967;-72
2022/02/13 12:09:44;;;;;;;;;;;;;;;;;;5030572;28;20519;-72
2022/02/13 12:12:10;;;;;;;;;;;;;;;;;;5043024;28;19952;-72
2022/02/13 12:14:36;;;;;;;;;;;;;;;;;;5041089;28;20436;-71
2022/02/13 12:17:02;;;;;;;;;;;;;;;;;;5039686;28;19952;-72
2022/02/13 12:19:29;;;;;;;;;;;;;;;;;;5042065;28;20440;-71
2022/02/13 12:21:55;;;;;;;;;;;;;;;;;;5037311;28;19969;-71
2022/02/13 12:24:21;;;;;;;;;;;;;;;;;;5039812;28;21334;-72
2022/02/13 12:26:47;;;;;;;;;;;;;;;;;;5007593;28;19952;-72
2022/02/13 12:29:14;;;;;;;;;;;;;;;;;;5039708;28;19955;-72
2022/02/13 12:31:41;;;;;;;;;;;;;;;;;;5037878;28;19971;-72
2022/02/13 12:34:07;;;;;;;;;;;;;;;;;;5034419;28;19968;-72
2022/02/13 12:36:33;;;;;;;;;;;;;;;;;;5039002;28;20456;-72
2022/02/13 12:39:00;;;;;;;;;;;;;;;;;;5043789;28;20403;-73
2022/02/13 12:41:26;;;;;;;;;;;;;;;;;;5035764;28;19960;-72
2022/02/13 12:43:52;;;;;;;;;;;;;;;;;;5036817;28;19965;-73
2022/02/13 12:46:21;;;;;;;;;;;;;;;;;;5029135;28;20034;-72
2022/02/13 12:48:48;;;;;;;;;;;;;;;;;;5041464;28;19956;-72
2022/02/13 12:51:14;;;;;;;;;;;;;;;;;;5037942;28;20230;-72
2022/02/13 12:53:41;;;;;;;;;;;;;;;;;;5038247;28;20312;-72
2022/02/13 12:56:08;;;;;;;;;;;;;;;;;;5039603;28;20314;-72
2022/02/13 12:58:35;;;;;;;;;;;;;;;;;;5038498;28;19929;-72
2022/02/13 13:01:02;;;;;;;;;;;;;;;;;;5040663;28;19971;-72
2022/02/13 13:03:29;;;;;;;;;;;;;;;;;;5035207;28;19971;-72
2022/02/13 13:05:55;;;;;;;;;;;;;;;;;;5041747;28;19952;-71
2022/02/13 13:08:21;;;;;;;;;;;;;;;;;;5027058;28;22745;-72
2022/02/13 13:10:47;;;;;;;;;;;;;;;;;;5040288;28;19971;-72
2022/02/13 13:13:13;;;;;;;;;;;;;;;;;;5034852;28;20010;-72
2022/02/13 13:15:53;;;;;;;;;;;;;;;;;;5039045;28;19956;-72
2022/02/13 13:18:19;;;;;;;;;;;;;;;;;;5040943;28;19952;-71
2022/02/13 13:20:45;;;;;;;;;;;;;;;;;;5037765;28;19971;-71
2022/02/13 13:23:15;;;;;;;;;;;;;;;;;;5037705;28;20462;-72
2022/02/13 13:25:44;;;;;;;;;;;;;;;;;;5040829;28;19949;-75
2022/02/13 13:28:10;;;;;;;;;;;;;;;;;;5043396;28;20002;-78
2022/02/13 13:30:36;;;;;;;;;;;;;;;;;;5044325;28;19964;-75
2022/02/13 13:33:03;;;;;;;;;;;;;;;;;;5035135;28;19949;-74
2022/02/13 13:35:29;;;;;;;;;;;;;;;;;;5041577;28;19956;-75
2022/02/13 13:37:55;;;;;;;;;;;;;;;;;;5042458;28;19976;-75
2022/02/13 13:40:22;;;;;;;;;;;;;;;;;;5040175;28;20634;-74
2022/02/13 13:42:48;;;;;;;;;;;;;;;;;;5037689;28;20514;-74
2022/02/13 13:45:15;;;;;;;;;;;;;;;;;;5041977;28;20398;-74
2022/02/13 13:47:42;;;;;;;;;;;;;;;;;;5042502;28;19917;-74
2022/02/13 13:50:09;;;;;;;;;;;;;;;;;;5042043;28;20002;-74
2022/02/13 13:52:35;;;;;;;;;;;;;;;;;;5048630;28;19960;-74
2022/02/13 13:55:01;;;;;;;;;;;;;;;;;;5044518;28;19949;-75
2022/02/13 13:57:27;;;;;;;;;;;;;;;;;;5040087;28;19952;-74
2022/02/13 13:59:53;;;;;;;;;;;;;;;;;;5041334;28;19971;-75
2022/02/13 14:02:20;;;;;;;;;;;;;;;;;;5040405;28;19932;-75
2022/02/13 14:04:46;;;;;;;;;;;;;;;;;;5041473;28;19952;-75
2022/02/13 14:07:12;;;;;;;;;;;;;;;;;;5025055;28;19994;-75
2022/02/13 14:09:38;;;;;;;;;;;;;;;;;;5043684;28;19971;-75
2022/02/13 14:12:05;;;;;;;;;;;;;;;;;;5044777;28;19940;-74
2022/02/13 14:14:31;;;;;;;;;;;;;;;;;;5044025;28;19964;-75
2022/02/13 14:16:57;;;;;;;;;;;;;;;;;;5038138;28;20392;-76
2022/02/13 14:19:23;;;;;;;;;;;;;;;;;;5042890;28;19963;-75
2022/02/13 14:21:50;;;;;;;;;;;;;;;;;;5039713;28;19967;-75
2022/02/13 14:24:16;;;;;;;;;;;;;;;;;;5038616;28;19960;-75
2022/02/13 14:26:42;;;;;;;;;;;;;;;;;;5045881;28;20345;-75
2022/02/13 14:29:11;;;;;;;;;;;;;;;;;;5039399;28;20349;-75
2022/02/13 14:31:37;;;;;;;;;;;;;;;;;;5042773;28;19967;-75
2022/02/13 14:34:03;;;;;;;;;;;;;;;;;;5045462;28;19964;-75
2022/02/13 14:36:29;;;;;;;;;;;;;;;;;;5042888;28;19952;-75
2022/02/13 14:38:55;;;;;;;;;;;;;;;;;;5044146;28;19960;-75
2022/02/13 14:41:22;;;;;;;;;;;;;;;;;;5045524;28;21259;-75
2022/02/13 14:43:48;;;;;;;;;;;;;;;;;;5042004;28;19983;-75
2022/02/13 14:46:14;;;;;;;;;;;;;;;;;;5043134;28;19956;-75
2022/02/13 14:48:45;;;;;;;;;;;;;;;;;;5045701;28;19956;-75
2022/02/13 14:51:12;;;;;;;;;;;;;;;;;;5042634;28;19956;-77
2022/02/13 14:53:38;;;;;;;;;;;;;;;;;;5043513;28;19948;-75
2022/02/13 14:56:04;;;;;;;;;;;;;;;;;;5047549;28;19971;-75
2022/02/13 14:58:32;;;;;;;;;;;;;;;;;;5044133;28;19948;-75
2022/02/13 15:00:58;;;;;;;;;;;;;;;;;;5045429;28;19983;-75
2022/02/13 15:03:24;;;;;;;;;;;;;;;;;;5043802;28;19965;-75
2022/02/13 15:05:50;;;;;;;;;;;;;;;;;;5025935;28;19932;-75
2022/02/13 15:08:17;;;;;;;;;;;;;;;;;;5043877;28;20394;-75
2022/02/13 15:10:43;;;;;;;;;;;;;;;;;;5030469;28;19956;-75
2022/02/13 15:13:10;;;;;;;;;;;;;;;;;;5045018;28;19976;-75
2022/02/13 15:15:36;;;;;;;;;;;;;;;;;;5050052;28;19957;-75
2022/02/13 15:18:03;;;;;;;;;;;;;;;;;;5041718;28;19956;-75
2022/02/13 15:20:29;;;;;;;;;;;;;;;;;;5040765;28;19959;-75
2022/02/13 15:22:56;;;;;;;;;;;;;;;;;;5027738;28;19975;-75
2022/02/13 15:25:23;;;;;;;;;;;;;;;;;;5044677;28;19956;-75
2022/02/13 15:27:49;;;;;;;;;;;;;;;;;;5044368;28;20683;-75
2022/02/13 15:30:15;;;;;;;;;;;;;;;;;;5048264;28;19955;-75
2022/02/13 15:32:41;;;;;;;;;;;;;;;;;;5043883;28;20010;-75
2022/02/13 15:35:07;;;;;;;;;;;;;;;;;;5039481;28;20352;-75
2022/02/13 15:37:34;;;;;;;;;;;;;;;;;;5041861;28;19994;-75
2022/02/13 15:40:00;;;;;;;;;;;;;;;;;;5045155;28;20368;-74
2022/02/13 15:42:26;;;;;;;;;;;;;;;;;;5041145;28;19988;-75
2022/02/13 15:44:52;;;;;;;;;;;;;;;;;;5044555;28;19952;-75
2022/02/13 15:47:20;;;;;;;;;;;;;;;;;;5043317;28;19960;-75
2022/02/13 15:49:46;;;;;;;;;;;;;;;;;;5045517;28;19956;-75
2022/02/13 15:52:12;;;;;;;;;;;;;;;;;;5044425;28;19952;-75
2022/02/13 15:54:39;;;;;;;;;;;;;;;;;;5047372;28;20353;-75
2022/02/13 15:57:05;;;;;;;;;;;;;;;;;;5040172;28;19963;-75
2022/02/13 15:59:31;;;;;;;;;;;;;;;;;;5045423;28;19932;-75
2022/02/13 16:01:57;;;;;;;;;;;;;;;;;;5043813;28;19953;-75
2022/02/13 16:04:23;;;;;;;;;;;;;;;;;;5046705;28;20329;-75
2022/02/13 16:06:49;;;;;;;;;;;;;;;;;;5044501;28;19959;-76
2022/02/13 16:09:16;;;;;;;;;;;;;;;;;;5041913;28;20313;-75
2022/02/13 16:11:42;;;;;;;;;;;;;;;;;;5042217;28;19944;-75
2022/02/13 16:14:08;;;;;;;;;;;;;;;;;;5039339;28;20006;-75
2022/02/13 16:16:35;;;;;;;;;;;;;;;;;;5039411;28;19960;-75
2022/02/13 16:19:02;;;;;;;;;;;;;;;;;;5025114;28;19945;-75
2022/02/13 16:21:28;;;;;;;;;;;;;;;;;;5037947;28;19948;-75
2022/02/13 16:24:03;;;;;;;;;;;;;;;;;;5046409;28;19968;-75
2022/02/13 16:26:29;;;;;;;;;;;;;;;;;;5044175;28;20471;-75
2022/02/13 16:28:56;;;;;;;;;;;;;;;;;;5040860;28;20459;-75
2022/02/13 16:31:22;;;;;;;;;;;;;;;;;;5041556;28;19948;-75
2022/02/13 16:33:50;;;;;;;;;;;;;;;;;;5043688;28;19959;-75
2022/02/13 16:36:16;;;;;;;;;;;;;;;;;;5043726;28;19964;-74
2022/02/13 16:38:43;;;;;;;;;;;;;;;;;;5047408;28;20013;-75
2022/02/13 16:41:09;;;;;;;;;;;;;;;;;;5042373;28;19952;-75
2022/02/13 16:43:35;;;;;;;;;;;;;;;;;;5023942;28;19972;-74
2022/02/13 16:46:01;;;;;;;;;;;;;;;;;;5043345;28;19958;-75